Time;durP1;ratioP1;P1;durP2;ratioP2;P2;SDS_P1;SDS_P2;PMS_P1;PMS_P2;Temp;Humidity;BMP_temperature;BMP_pressure;BME280_temperature;BME280_humidity;BME280_pressure;Samples;Min_cycle;Max_cycle;Signal;HPM_P1;HPM_P2
2022/04/12 00:01:50;;;;;;;14.85;8.57;;;10.50;99.90;;;;;;5078167;28;20517;-78
2022/04/12 00:04:16;;;;;;;14.98;8.85;;;10.50;99.90;;;;;;5077886;28;20027;-78
2022/04/12 00:06:41;;;;;;;15.07;9.02;;;10.50;99.90;;;;;;5064447;28;20033;-78
2022/04/12 00:09:07;;;;;;;13.00;9.15;;;10.50;99.90;;;;;;5073830;28;20052;-78
2022/04/12 00:11:33;;;;;;;14.70;9.13;;;10.40;99.90;;;;;;5078053;28;20021;-78
2022/04/12 00:13:58;;;;;;;14.45;8.95;;;10.50;99.90;;;;;;5078074;28;20051;-78
2022/04/12 00:16:24;;;;;;;13.20;9.35;;;10.40;99.90;;;;;;5077687;28;20032;-78
2022/04/12 00:19:04;;;;;;;15.07;8.88;;;10.40;99.90;;;;;;5077047;28;20102;-78
2022/04/12 00:21:34;;;;;;;14.82;8.88;;;10.40;99.90;;;;;;5077045;28;20027;-78
2022/04/12 00:24:05;;;;;;;14.50;9.43;;;10.40;99.90;;;;;;5078072;28;20379;-78
2022/04/12 00:26:32;;;;;;;12.18;8.75;;;10.40;99.90;;;;;;5076745;28;20039;-78
2022/04/12 00:28:57;;;;;;;11.80;8.82;;;10.30;99.90;;;;;;5078305;28;20058;-78
2022/04/12 00:31:23;;;;;;;10.93;8.05;;;10.30;99.90;;;;;;5070922;28;20020;-78
2022/04/12 00:33:49;;;;;;;11.88;8.45;;;10.30;99.90;;;;;;5071730;28;20048;-78
2022/04/12 00:36:14;;;;;;;14.80;9.13;;;10.30;99.90;;;;;;5076663;28;20036;-78
2022/04/12 00:38:40;;;;;;;12.23;8.65;;;10.30;99.90;;;;;;5076742;28;20492;-78
2022/04/12 00:41:07;;;;;;;14.63;9.20;;;10.20;99.90;;;;;;5076940;28;20104;-78
2022/04/12 00:43:38;;;;;;;13.13;9.27;;;10.20;99.90;;;;;;5076985;28;20028;-78
2022/04/12 00:46:04;;;;;;;16.08;9.88;;;10.20;99.90;;;;;;5076862;28;20032;-79
2022/04/12 00:48:30;;;;;;;13.63;9.00;;;10.20;99.90;;;;;;5076037;28;20434;-78
2022/04/12 00:50:57;;;;;;;11.75;8.70;;;10.20;99.90;;;;;;5075470;28;20470;-78
2022/04/12 00:53:24;;;;;;;14.52;8.80;;;10.10;99.90;;;;;;5075252;28;20040;-78
2022/04/12 00:55:50;;;;;;;14.88;8.90;;;10.10;99.90;;;;;;5075202;28;20059;-78
2022/04/12 00:58:16;;;;;;;12.45;8.50;;;10.10;99.90;;;;;;5075214;28;20461;-78
2022/04/12 01:00:41;;;;;;;14.10;9.00;;;10.10;99.90;;;;;;5075512;28;20025;-78
2022/04/12 01:03:07;;;;;;;13.27;8.57;;;10.10;99.90;;;;;;5074440;28;20361;-78
2022/04/12 01:05:34;;;;;;;14.77;9.32;;;10.00;99.90;;;;;;5074696;28;20067;-78
2022/04/12 01:08:01;;;;;;;14.57;9.25;;;10.00;99.90;;;;;;5074658;28;20079;-78
2022/04/12 01:10:26;;;;;;;15.80;9.50;;;10.00;99.90;;;;;;5072853;28;20393;-78
2022/04/12 01:12:52;;;;;;;15.07;9.25;;;10.00;99.90;;;;;;5074295;28;20025;-78
2022/04/12 01:15:23;;;;;;;14.00;8.95;;;10.00;99.90;;;;;;5073525;28;20433;-78
2022/04/12 01:17:49;;;;;;;15.07;9.02;;;9.90;99.90;;;;;;5074156;28;20404;-78
2022/04/12 01:20:17;;;;;;;14.80;9.50;;;9.90;99.90;;;;;;5073992;28;20060;-78
2022/04/12 01:22:46;;;;;;;11.93;8.48;;;9.90;99.90;;;;;;5073778;28;20016;-78
2022/04/12 01:25:12;;;;;;;13.10;8.38;;;9.80;99.90;;;;;;5073013;28;20051;-78
2022/04/12 01:27:37;;;;;;;12.70;9.25;;;9.80;99.90;;;;;;5073799;28;20072;-78
2022/04/12 01:30:03;;;;;;;14.90;8.90;;;9.80;99.90;;;;;;5073381;28;20056;-78
2022/04/12 01:32:29;;;;;;;13.27;8.85;;;9.70;99.90;;;;;;5073926;28;20025;-78
2022/04/12 01:34:54;;;;;;;13.20;8.65;;;9.70;99.90;;;;;;5072739;28;20031;-78
2022/04/12 01:37:21;;;;;;;13.38;9.40;;;9.70;99.90;;;;;;5073370;28;20029;-78
2022/04/12 01:39:46;;;;;;;17.95;9.57;;;9.60;99.90;;;;;;5074106;28;20081;-79
2022/04/12 01:42:12;;;;;;;17.58;9.75;;;9.60;99.90;;;;;;5073426;28;20108;-78
2022/04/12 01:44:37;;;;;;;14.80;10.13;;;9.50;99.90;;;;;;5072387;28;20029;-78
2022/04/12 01:47:03;;;;;;;15.50;9.45;;;9.50;99.90;;;;;;5073024;28;20025;-78
2022/04/12 01:49:29;;;;;;;15.77;9.98;;;9.50;99.90;;;;;;5073072;28;20099;-78
2022/04/12 01:51:54;;;;;;;14.27;9.80;;;9.40;99.90;;;;;;5073089;28;20075;-78
2022/04/12 01:54:20;;;;;;;13.65;9.32;;;9.40;99.90;;;;;;5072366;28;20563;-78
2022/04/12 01:56:45;;;;;;;13.70;9.50;;;9.30;99.90;;;;;;5071399;28;20042;-79
2022/04/12 01:59:11;;;;;;;12.60;9.30;;;9.30;99.90;;;;;;5073836;28;20098;-78
2022/04/12 02:01:36;;;;;;;15.80;9.82;;;9.20;99.90;;;;;;5071935;28;20158;-78
2022/04/12 02:04:02;;;;;;;20.15;10.35;;;9.20;99.90;;;;;;5073079;28;20082;-78
2022/04/12 02:06:27;;;;;;;16.08;10.02;;;9.20;99.90;;;;;;5073371;28;20402;-78
2022/04/12 02:08:53;;;;;;;17.15;10.50;;;9.20;99.90;;;;;;5073692;28;20028;-78
2022/04/12 02:11:19;;;;;;;14.15;9.85;;;9.10;99.90;;;;;;5072898;28;20037;-78
2022/04/12 02:13:44;;;;;;;15.13;10.00;;;9.10;99.90;;;;;;5073375;28;20040;-78
2022/04/12 02:16:10;;;;;;;15.38;10.00;;;9.10;99.90;;;;;;5076910;28;20103;-78
2022/04/12 02:18:35;;;;;;;15.40;10.27;;;9.00;99.90;;;;;;5077381;28;20051;-78
2022/04/12 02:21:01;;;;;;;15.43;10.02;;;9.00;99.90;;;;;;5077497;28;20017;-78
2022/04/12 02:23:26;;;;;;;13.90;9.02;;;9.00;99.90;;;;;;5075046;28;20059;-78
2022/04/12 02:25:52;;;;;;;16.55;10.20;;;8.90;99.90;;;;;;5074819;28;20376;-78
2022/04/12 02:28:17;;;;;;;16.30;9.95;;;8.90;99.90;;;;;;5073669;28;20472;-78
2022/04/12 02:30:44;;;;;;;16.67;9.73;;;8.90;99.90;;;;;;5076418;28;20028;-78
2022/04/12 02:33:10;;;;;;;18.25;10.15;;;8.90;99.90;;;;;;5076926;28;20123;-78
2022/04/12 02:35:35;;;;;;;20.88;9.70;;;8.90;99.90;;;;;;5076324;28;20532;-78
2022/04/12 02:38:01;;;;;;;13.57;8.82;;;8.80;99.90;;;;;;5076440;28;20021;-78
2022/04/12 02:40:27;;;;;;;14.60;9.27;;;8.80;99.90;;;;;;5076340;28;20396;-78
2022/04/12 02:42:52;;;;;;;13.35;8.95;;;8.80;99.90;;;;;;5076046;28;20434;-78
2022/04/12 02:45:18;;;;;;;14.70;9.80;;;8.80;99.90;;;;;;5074513;28;20025;-78
2022/04/12 02:47:43;;;;;;;15.15;8.95;;;8.80;99.90;;;;;;5074725;28;20476;-78
2022/04/12 02:50:09;;;;;;;15.55;9.23;;;8.80;99.90;;;;;;5074676;28;20028;-78
2022/04/12 02:52:35;;;;;;;15.65;9.35;;;8.70;99.90;;;;;;5074350;28;20024;-78
2022/04/12 02:55:00;;;;;;;15.40;9.88;;;8.70;99.90;;;;;;5073426;28;20032;-78
2022/04/12 02:57:26;;;;;;;14.82;9.02;;;8.70;99.90;;;;;;5077448;28;20020;-78
2022/04/12 02:59:51;;;;;;;14.63;9.15;;;8.70;99.90;;;;;;5079228;28;20028;-78
2022/04/12 03:02:17;;;;;;;14.73;9.35;;;8.70;99.90;;;;;;5078174;28;20028;-78
2022/04/12 03:04:42;;;;;;;14.77;8.82;;;8.70;99.90;;;;;;5078582;28;20059;-78
2022/04/12 03:07:09;;;;;;;13.25;9.10;;;8.60;99.90;;;;;;5078706;28;20024;-78
2022/04/12 03:09:35;;;;;;;12.65;8.65;;;8.70;99.90;;;;;;5080562;28;20013;-78
2022/04/12 03:12:00;;;;;;;13.25;8.77;;;8.60;99.90;;;;;;5080047;28;20017;-78
2022/04/12 03:14:26;;;;;;;14.15;8.98;;;8.60;99.90;;;;;;5078475;28;20439;-78
2022/04/12 03:16:52;;;;;;;13.18;8.85;;;8.60;99.90;;;;;;5079173;28;20465;-78
2022/04/12 03:19:17;;;;;;;9.93;7.90;;;8.60;99.90;;;;;;5079140;28;20501;-78
2022/04/12 03:21:43;;;;;;;16.13;8.73;;;8.60;99.90;;;;;;5079455;28;20050;-78
2022/04/12 03:24:09;;;;;;;13.25;8.50;;;8.60;99.90;;;;;;5079126;28;20535;-78
2022/04/12 03:26:35;;;;;;;12.18;8.13;;;8.60;99.90;;;;;;5077696;28;20033;-78
2022/04/12 03:29:01;;;;;;;10.73;7.95;;;8.60;99.90;;;;;;5079615;28;20280;-78
2022/04/12 03:31:26;;;;;;;13.18;8.30;;;8.60;99.90;;;;;;5080078;28;20033;-78
2022/04/12 03:33:52;;;;;;;13.60;8.18;;;8.60;99.90;;;;;;5079881;28;20031;-78
2022/04/12 03:36:17;;;;;;;11.13;8.13;;;8.60;99.90;;;;;;5079326;28;20032;-78
2022/04/12 03:38:48;;;;;;;13.93;7.88;;;8.60;99.90;;;;;;5079268;28;20021;-78
2022/04/12 03:41:22;;;;;;;14.57;8.00;;;8.60;99.90;;;;;;5080094;28;20043;-78
2022/04/12 03:43:48;;;;;;;10.30;6.18;;;8.60;99.90;;;;;;5079608;28;20081;-78
2022/04/12 03:46:14;;;;;;;11.23;8.02;;;8.70;99.90;;;;;;5078429;28;20040;-78
2022/04/12 03:48:40;;;;;;;10.65;7.60;;;8.70;99.90;;;;;;5077752;28;20023;-78
2022/04/12 03:51:06;;;;;;;10.93;7.60;;;8.70;99.90;;;;;;5079872;28;20623;-78
2022/04/12 03:53:31;;;;;;;11.82;7.75;;;8.70;99.90;;;;;;5079590;28;20056;-78
2022/04/12 03:55:57;;;;;;;13.32;7.70;;;8.70;99.90;;;;;;5074226;28;20088;-78
2022/04/12 03:58:23;;;;;;;13.50;7.55;;;8.70;99.90;;;;;;5069932;28;20035;-78
2022/04/12 04:00:49;;;;;;;13.77;7.90;;;8.70;99.90;;;;;;5066391;28;20057;-78
2022/04/12 04:03:17;;;;;;;13.43;7.60;;;8.70;99.90;;;;;;5064502;28;20033;-78
2022/04/12 04:05:43;;;;;;;13.48;7.97;;;8.70;99.90;;;;;;5062735;28;20051;-78
2022/04/12 04:08:09;;;;;;;13.52;7.95;;;8.70;99.90;;;;;;5073140;28;20028;-78
2022/04/12 04:10:34;;;;;;;12.18;7.43;;;8.70;99.90;;;;;;5076753;28;20037;-78
2022/04/12 04:13:01;;;;;;;14.85;8.00;;;8.70;99.90;;;;;;5077682;28;20082;-76
2022/04/12 04:15:27;;;;;;;9.85;7.32;;;8.70;99.90;;;;;;5080213;28;20036;-77
2022/04/12 04:17:52;;;;;;;12.20;7.38;;;8.70;99.90;;;;;;5082990;28;20429;-77
2022/04/12 04:20:19;;;;;;;14.68;8.23;;;8.70;99.90;;;;;;5083344;28;20042;-78
2022/04/12 04:22:45;;;;;;;12.68;8.07;;;8.70;99.90;;;;;;5084684;28;20024;-77
2022/04/12 04:25:13;;;;;;;16.30;8.27;;;8.60;99.90;;;;;;5083270;28;20058;-77
2022/04/12 04:27:39;;;;;;;13.18;7.72;;;8.60;99.90;;;;;;5069339;28;20036;-77
2022/04/12 04:30:07;;;;;;;10.32;7.57;;;8.60;99.90;;;;;;5075480;28;20017;-77
2022/04/12 04:32:33;;;;;;;10.20;7.72;;;8.60;99.90;;;;;;5076334;28;20021;-77
2022/04/12 04:34:59;;;;;;;16.58;7.63;;;8.60;99.90;;;;;;5068921;28;20060;-77
2022/04/12 04:37:25;;;;;;;13.07;7.85;;;8.60;99.90;;;;;;5074131;28;20027;-77
2022/04/12 04:39:51;;;;;;;10.80;7.32;;;8.60;99.90;;;;;;5068004;28;20035;-77
2022/04/12 04:42:17;;;;;;;10.63;7.72;;;8.50;99.90;;;;;;5077771;28;20091;-77
2022/04/12 04:44:43;;;;;;;11.55;7.57;;;8.50;99.90;;;;;;5073520;28;20017;-77
2022/04/12 04:47:08;;;;;;;15.90;7.93;;;8.50;99.90;;;;;;5074047;28;20031;-77
2022/04/12 04:49:34;;;;;;;12.80;7.95;;;8.50;99.90;;;;;;5045707;28;20021;-77
2022/04/12 04:51:59;;;;;;;13.63;8.32;;;8.50;99.90;;;;;;5065885;28;20032;-77
2022/04/12 04:54:25;;;;;;;13.45;7.40;;;8.50;99.90;;;;;;5049033;28;20032;-77
2022/04/12 04:56:51;;;;;;;12.82;7.63;;;8.50;99.90;;;;;;5062254;28;20032;-77
2022/04/12 04:59:17;;;;;;;11.50;7.95;;;8.50;99.90;;;;;;5058066;28;20025;-77
2022/04/12 05:01:42;;;;;;;11.63;7.65;;;8.50;99.90;;;;;;5079047;28;20025;-78
2022/04/12 05:04:08;;;;;;;11.75;8.05;;;8.50;99.90;;;;;;5069089;28;20012;-78
2022/04/12 05:06:33;;;;;;;11.93;7.50;;;8.50;99.90;;;;;;5078793;28;20025;-78
2022/04/12 05:08:59;;;;;;;11.70;7.43;;;8.50;99.90;;;;;;5085610;28;20052;-77
2022/04/12 05:11:24;;;;;;;11.38;7.70;;;8.50;99.90;;;;;;5065276;28;20040;-77
2022/04/12 05:13:50;;;;;;;10.75;7.20;;;8.50;99.90;;;;;;5069243;28;20039;-77
2022/04/12 05:16:16;;;;;;;12.15;7.50;;;8.40;99.90;;;;;;5074978;28;20043;-77
2022/04/12 05:18:41;;;;;;;11.43;7.18;;;8.40;99.90;;;;;;5056437;28;20520;-77
2022/04/12 05:21:07;;;;;;;10.88;7.60;;;8.40;99.90;;;;;;5072321;28;20028;-77
2022/04/12 05:23:32;;;;;;;13.35;8.15;;;8.40;99.90;;;;;;5053948;28;20032;-77
2022/04/12 05:25:59;;;;;;;11.75;7.40;;;8.40;99.90;;;;;;5062906;28;20028;-77
2022/04/12 05:28:24;;;;;;;11.80;7.63;;;8.40;99.90;;;;;;5062931;28;20029;-77
2022/04/12 05:30:50;;;;;;;12.25;8.05;;;8.40;99.90;;;;;;5060489;28;20551;-77
2022/04/12 05:33:15;;;;;;;9.30;7.15;;;8.40;99.90;;;;;;5065152;28;20036;-77
2022/04/12 05:35:41;;;;;;;11.40;7.57;;;8.40;99.90;;;;;;5071049;28;20021;-77
2022/04/12 05:38:07;;;;;;;11.73;7.65;;;8.50;99.90;;;;;;5075202;28;20025;-77
2022/04/12 05:40:33;;;;;;;11.98;7.85;;;8.50;99.90;;;;;;5074300;28;20021;-77
2022/04/12 05:42:59;;;;;;;15.27;8.30;;;8.50;99.90;;;;;;5079025;28;20017;-77
2022/04/12 05:45:25;;;;;;;14.25;8.27;;;8.50;99.90;;;;;;5082258;28;20024;-77
2022/04/12 05:47:53;;;;;;;12.07;8.00;;;8.50;99.90;;;;;;5074161;28;20065;-77
2022/04/12 05:50:24;;;;;;;12.45;7.75;;;8.50;99.90;;;;;;5064171;28;20021;-77
2022/04/12 05:52:50;;;;;;;13.98;8.18;;;8.50;99.90;;;;;;5061573;28;20029;-77
2022/04/12 05:55:17;;;;;;;14.98;8.35;;;8.50;99.90;;;;;;5078999;28;20047;-77
2022/04/12 05:58:00;;;;;;;10.52;7.70;;;8.60;99.90;;;;;;5076907;28;20016;-77
2022/04/12 06:00:27;;;;;;;13.18;8.32;;;8.60;99.90;;;;;;5084811;28;20043;-77
2022/04/12 06:02:54;;;;;;;13.27;8.20;;;8.60;99.90;;;;;;5077287;28;20013;-77
2022/04/12 06:05:22;;;;;;;12.27;8.30;;;8.60;99.90;;;;;;5061289;28;20051;-77
2022/04/12 06:07:48;;;;;;;14.73;8.50;;;8.70;99.90;;;;;;5079455;28;20492;-77
2022/04/12 06:10:17;;;;;;;13.95;7.55;;;8.70;99.90;;;;;;5068070;28;20036;-77
2022/04/12 06:12:43;;;;;;;10.60;8.25;;;8.80;99.90;;;;;;5076598;28;20038;-77
2022/04/12 06:15:09;;;;;;;14.48;8.15;;;8.80;99.90;;;;;;5074081;28;20043;-77
2022/04/12 06:17:36;;;;;;;12.48;8.02;;;8.90;99.90;;;;;;5076297;28;20131;-77
2022/04/12 06:20:10;;;;;;;14.13;7.55;;;8.90;99.90;;;;;;5080275;28;20036;-77
2022/04/12 06:22:37;;;;;;;12.45;7.50;;;9.00;99.90;;;;;;5081442;28;20024;-77
2022/04/12 06:25:04;;;;;;;12.18;7.80;;;9.00;99.90;;;;;;5074733;28;20017;-77
2022/04/12 06:27:40;;;;;;;12.45;8.00;;;9.10;99.90;;;;;;5078984;28;20041;-77
2022/04/12 06:30:07;;;;;;;10.45;7.75;;;9.20;99.90;;;;;;5085908;28;20032;-77
2022/04/12 06:32:34;;;;;;;12.73;7.68;;;9.20;99.90;;;;;;5076939;28;20108;-77
2022/04/12 06:35:00;;;;;;;13.35;8.52;;;9.30;99.90;;;;;;5079440;28;20063;-77
2022/04/12 06:37:27;;;;;;;13.38;8.75;;;9.30;99.90;;;;;;5081612;28;20009;-77
2022/04/12 06:39:53;;;;;;;13.30;8.45;;;9.40;99.90;;;;;;5078590;28;20021;-77
2022/04/12 06:42:19;;;;;;;14.63;9.05;;;9.40;99.90;;;;;;5074881;28;20017;-76
2022/04/12 06:44:45;;;;;;;12.13;7.90;;;9.50;99.90;;;;;;5076248;28;20033;-78
2022/04/12 06:47:11;;;;;;;15.75;9.30;;;9.50;99.90;;;;;;5085396;28;20408;-77
2022/04/12 06:49:36;;;;;;;20.83;9.23;;;9.60;99.90;;;;;;5086617;28;20024;-78
2022/04/12 06:52:02;;;;;;;14.52;8.93;;;9.70;99.90;;;;;;5066277;28;20028;-77
2022/04/12 06:54:27;;;;;;;22.23;9.02;;;9.80;99.90;;;;;;5087126;28;20527;-76
2022/04/12 06:56:53;;;;;;;15.18;9.00;;;9.80;99.90;;;;;;5084231;28;20024;-76
2022/04/12 06:59:18;;;;;;;14.23;8.65;;;9.90;99.90;;;;;;5085833;28;20035;-76
2022/04/12 07:01:44;;;;;;;14.90;8.77;;;10.00;99.90;;;;;;5085330;28;20119;-77
2022/04/12 07:04:09;;;;;;;14.32;8.88;;;10.00;99.90;;;;;;5082330;28;20490;-77
2022/04/12 07:06:35;;;;;;;17.10;8.70;;;10.10;99.90;;;;;;5085177;28;20089;-77
2022/04/12 07:09:01;;;;;;;16.02;8.75;;;10.20;99.90;;;;;;5075014;28;20056;-77
2022/04/12 07:11:26;;;;;;;14.02;8.68;;;10.20;99.90;;;;;;5081685;28;20104;-76
2022/04/12 07:13:52;;;;;;;14.38;8.65;;;10.30;99.90;;;;;;5086823;28;20012;-77
2022/04/12 07:16:17;;;;;;;16.20;8.63;;;10.30;99.90;;;;;;5072357;28;20033;-76
2022/04/12 07:18:43;;;;;;;14.68;8.60;;;10.40;99.90;;;;;;5091758;28;20492;-76
2022/04/12 07:21:09;;;;;;;18.20;8.75;;;10.50;99.90;;;;;;5090885;28;20016;-77
2022/04/12 07:23:37;;;;;;;12.30;8.75;;;10.50;99.90;;;;;;5093250;28;20059;-76
2022/04/12 07:26:06;;;;;;;14.25;8.30;;;10.60;99.90;;;;;;5088299;28;20083;-76
2022/04/12 07:28:31;;;;;;;17.98;8.70;;;10.70;99.90;;;;;;5059671;28;20033;-76
2022/04/12 07:30:57;;;;;;;14.23;8.38;;;10.80;99.90;;;;;;5091684;28;20035;-76
2022/04/12 07:33:23;;;;;;;14.13;8.13;;;10.90;99.90;;;;;;5093760;28;20021;-76
2022/04/12 07:35:48;;;;;;;13.88;8.75;;;11.00;99.90;;;;;;5091643;28;20036;-76
2022/04/12 07:38:14;;;;;;;13.77;8.48;;;11.10;99.90;;;;;;5085187;28;20028;-76
2022/04/12 07:40:39;;;;;;;14.27;9.10;;;11.20;99.90;;;;;;5092952;28;20036;-76
2022/04/12 07:43:05;;;;;;;13.82;8.48;;;11.30;99.90;;;;;;5090256;28;20366;-76
2022/04/12 07:45:30;;;;;;;12.50;8.18;;;11.40;99.90;;;;;;5091496;28;20084;-76
2022/04/12 07:47:56;;;;;;;13.90;8.57;;;11.50;99.90;;;;;;5092385;28;20059;-76
2022/04/12 07:50:21;;;;;;;13.48;8.18;;;11.70;99.90;;;;;;5056093;28;20032;-76
2022/04/12 07:52:47;;;;;;;12.20;7.93;;;11.80;99.90;;;;;;5089838;28;20063;-76
2022/04/12 07:55:13;;;;;;;15.60;8.20;;;12.00;99.90;;;;;;5090606;28;20064;-76
2022/04/12 07:57:38;;;;;;;12.68;7.65;;;12.10;99.90;;;;;;5090623;28;20020;-76
2022/04/12 08:00:05;;;;;;;11.32;7.68;;;12.20;99.90;;;;;;5090390;28;20025;-76
2022/04/12 08:02:30;;;;;;;14.25;7.90;;;12.40;99.90;;;;;;5088781;28;20044;-76
2022/04/12 08:04:56;;;;;;;11.48;7.78;;;12.60;99.90;;;;;;5091745;28;20035;-77
2022/04/12 08:07:21;;;;;;;11.27;8.02;;;12.70;99.90;;;;;;5092950;28;20024;-76
2022/04/12 08:09:47;;;;;;;14.80;8.35;;;12.80;99.90;;;;;;5091029;28;20012;-76
2022/04/12 08:12:12;;;;;;;13.70;8.00;;;13.00;99.90;;;;;;5088759;28;20036;-77
2022/04/12 08:14:38;;;;;;;11.05;6.97;;;13.10;99.90;;;;;;5094501;28;20051;-78
2022/04/12 08:17:04;;;;;;;14.18;7.53;;;13.20;99.90;;;;;;5094634;28;20032;-76
2022/04/12 08:19:29;;;;;;;16.17;8.15;;;13.30;99.90;;;;;;5096114;28;20096;-76
2022/04/12 08:21:55;;;;;;;18.30;8.73;;;13.40;99.90;;;;;;5094715;28;20371;-76
2022/04/12 08:24:22;;;;;;;15.02;8.13;;;13.50;99.90;;;;;;5094135;28;20040;-77
2022/04/12 08:26:47;;;;;;;14.25;7.50;;;13.60;99.90;;;;;;5094090;28;20099;-76
2022/04/12 08:29:13;;;;;;;11.07;7.25;;;13.70;99.90;;;;;;5093937;28;20028;-77
2022/04/12 08:31:39;;;;;;;10.65;7.18;;;13.80;99.90;;;;;;5077590;28;20028;-76
2022/04/12 08:34:05;;;;;;;9.68;6.90;;;13.90;99.90;;;;;;5095016;28;20035;-77
2022/04/12 08:36:30;;;;;;;12.20;7.07;;;14.10;99.90;;;;;;5076812;28;20060;-76
2022/04/12 08:38:56;;;;;;;16.02;7.30;;;14.30;99.90;;;;;;5096056;28;20025;-76
2022/04/12 08:41:23;;;;;;;11.77;6.90;;;14.40;99.90;;;;;;5095541;28;20017;-76
2022/04/12 08:43:54;;;;;;;13.25;6.78;;;14.60;99.50;;;;;;5077883;28;20046;-76
2022/04/12 08:46:20;;;;;;;11.02;6.90;;;14.80;98.70;;;;;;5088377;28;20112;-77
2022/04/12 08:48:46;;;;;;;13.07;7.05;;;14.90;98.30;;;;;;5094757;28;20024;-76
2022/04/12 08:51:12;;;;;;;12.88;6.78;;;15.10;97.50;;;;;;5095645;28;20017;-76
2022/04/12 08:53:37;;;;;;;11.30;6.45;;;15.30;96.50;;;;;;5096459;28;20039;-76
2022/04/12 08:56:03;;;;;;;13.18;6.63;;;15.40;96.30;;;;;;5096370;28;20055;-77
2022/04/12 08:58:29;;;;;;;11.05;6.88;;;15.60;96.00;;;;;;5096647;28;20068;-76
2022/04/12 09:00:55;;;;;;;13.27;7.18;;;15.80;95.20;;;;;;5096923;28;20131;-77
2022/04/12 09:03:20;;;;;;;10.40;6.90;;;16.00;94.70;;;;;;5092844;28;20027;-77
2022/04/12 09:05:46;;;;;;;11.88;7.10;;;16.10;94.70;;;;;;5092890;28;20088;-77
2022/04/12 09:08:28;;;;;;;9.65;6.75;;;16.30;94.00;;;;;;5096489;28;20009;-77
2022/04/12 09:11:05;;;;;;;13.57;7.47;;;16.40;92.90;;;;;;5076620;28;20037;-76
2022/04/12 09:13:31;;;;;;;11.27;6.97;;;16.40;92.30;;;;;;5095130;28;20016;-77
2022/04/12 09:15:58;;;;;;;11.05;7.18;;;16.60;91.80;;;;;;5096119;28;20024;-76
2022/04/12 09:18:35;;;;;;;9.13;6.80;;;16.70;91.40;;;;;;5096284;28;20037;-77
2022/04/12 09:21:17;;;;;;;13.80;6.72;;;16.90;91.30;;;;;;5096396;28;20032;-77
2022/04/12 09:23:44;;;;;;;11.45;7.00;;;17.00;90.70;;;;;;5088262;28;20032;-77
2022/04/12 09:26:16;;;;;;;11.90;6.20;;;17.20;90.10;;;;;;5096584;28;20068;-77
2022/04/12 09:28:43;;;;;;;10.70;6.40;;;17.30;89.00;;;;;;5096648;28;20133;-77
2022/04/12 09:31:17;;;;;;;11.50;6.70;;;17.40;87.60;;;;;;5096481;28;20028;-77
2022/04/12 09:33:44;;;;;;;10.07;6.38;;;17.60;86.50;;;;;;5096163;28;20024;-77
2022/04/12 09:36:11;;;;;;;12.43;6.03;;;17.70;85.10;;;;;;5096539;28;20217;-77
2022/04/12 09:38:38;;;;;;;7.60;5.93;;;17.80;84.50;;;;;;5095963;28;20036;-77
2022/04/12 09:41:14;;;;;;;13.52;6.57;;;17.80;82.90;;;;;;5096486;28;20023;-76
2022/04/12 09:44:08;;;;;;;7.88;5.90;;;17.90;82.00;;;;;;5096216;28;20033;-76
2022/04/12 09:46:36;;;;;;;8.40;5.95;;;18.00;80.80;;;;;;5096161;28;20116;-77
2022/04/12 09:49:02;;;;;;;9.43;5.90;;;18.10;81.10;;;;;;5094342;28;20012;-77
2022/04/12 09:51:28;;;;;;;12.80;6.60;;;18.20;80.80;;;;;;5096399;28;20021;-77
2022/04/12 09:53:54;;;;;;;12.52;6.53;;;18.30;81.10;;;;;;5095986;28;20035;-76
2022/04/12 09:56:29;;;;;;;10.88;6.18;;;18.40;80.60;;;;;;5068774;28;20032;-74
2022/04/12 09:58:59;;;;;;;;;;;18.50;81.20;;;;;;5077527;28;20035;-74
2022/04/12 10:01:25;;;;;;;10.05;6.43;;;18.60;80.90;;;;;;5058840;28;19909;-75
2022/04/12 10:03:56;;;;;;;11.25;6.53;;;18.70;80.20;;;;;;5065891;28;20028;-76
2022/04/12 10:06:27;;;;;;;10.40;5.82;;;18.70;78.60;;;;;;5053407;28;20029;-75
2022/04/12 10:09:00;;;;;;;9.85;6.60;;;18.70;78.80;;;;;;5067581;28;20043;-75
2022/04/12 10:11:26;;;;;;;11.77;5.88;;;18.70;80.10;;;;;;5075296;28;20021;-74
2022/04/12 10:13:53;;;;;;;8.23;5.97;;;18.70;80.00;;;;;;5075883;28;20025;-75
2022/04/12 10:16:20;;;;;;;10.15;6.55;;;18.70;80.20;;;;;;5062332;28;20489;-74
2022/04/12 10:18:46;;;;;;;10.40;5.80;;;18.60;80.60;;;;;;5055081;28;20052;-74
2022/04/12 10:21:13;;;;;;;10.60;6.80;;;18.60;81.20;;;;;;5063852;28;20021;-74
2022/04/12 10:23:42;;;;;;;10.65;6.75;;;18.60;81.30;;;;;;5072582;28;20025;-74
2022/04/12 10:26:09;;;;;;;11.75;6.90;;;18.50;80.50;;;;;;5075370;28;20047;-74
2022/04/12 10:28:35;;;;;;;11.93;7.03;;;18.50;81.00;;;;;;5075493;28;20478;-75
2022/04/12 10:31:19;;;;;;;9.95;6.45;;;18.40;82.00;;;;;;5075326;28;20033;-74
2022/04/12 10:33:52;;;;;;;10.65;6.53;;;18.40;83.50;;;;;;5074956;28;20082;-74
2022/04/12 10:36:17;;;;;;;11.43;6.97;;;18.40;84.10;;;;;;5043538;28;20083;-74
2022/04/12 10:38:44;;;;;;;9.98;6.10;;;18.40;84.90;;;;;;5065263;28;20508;-74
2022/04/12 10:41:16;;;;;;;11.63;6.57;;;18.40;84.40;;;;;;5068891;28;20028;-75
2022/04/12 10:43:42;;;;;;;10.57;6.57;;;18.40;85.20;;;;;;5062694;28;20021;-75
2022/04/12 10:46:11;;;;;;;11.27;6.65;;;18.50;85.50;;;;;;5062244;28;20040;-75
2022/04/12 10:48:37;;;;;;;14.13;6.95;;;18.50;84.50;;;;;;5063830;28;20021;-75
2022/04/12 10:51:04;;;;;;;10.70;6.30;;;18.50;83.50;;;;;;5058292;28;20024;-75
2022/04/12 10:53:38;;;;;;;12.77;6.28;;;18.50;83.00;;;;;;5063917;28;20074;-75
2022/04/12 10:56:10;;;;;;;9.18;6.32;;;18.40;83.60;;;;;;5081174;28;20028;-74
2022/04/12 10:58:36;;;;;;;9.48;6.00;;;18.40;84.10;;;;;;5079865;28;20127;-77
2022/04/12 11:01:03;;;;;;;9.52;6.75;;;18.50;85.00;;;;;;5077678;28;20031;-75
2022/04/12 11:03:52;;;;;;;11.30;5.95;;;18.50;84.50;;;;;;5073298;28;20043;-74
2022/04/12 11:06:26;;;;;;;8.27;6.03;;;18.60;84.90;;;;;;5067655;28;20104;-74
2022/04/12 11:08:54;;;;;;;10.65;6.57;;;18.60;85.50;;;;;;5077459;28;20344;-75
2022/04/12 11:11:22;;;;;;;7.88;6.53;;;18.60;85.10;;;;;;5075008;28;20028;-75
2022/04/12 11:13:49;;;;;;;11.77;6.80;;;18.60;85.40;;;;;;5060492;28;20021;-74
2022/04/12 11:16:18;;;;;;;14.77;6.82;;;18.70;85.90;;;;;;5075593;28;20089;-74
2022/04/12 11:18:49;;;;;;;10.32;6.53;;;18.80;86.10;;;;;;5076002;28;20070;-74
2022/04/12 11:21:16;;;;;;;9.75;6.50;;;18.80;86.20;;;;;;5076617;28;20561;-75
2022/04/12 11:23:55;;;;;;;11.55;6.38;;;19.00;85.40;;;;;;5076095;28;20024;-75
2022/04/12 11:26:45;;;;;;;9.35;5.85;;;19.10;83.60;;;;;;5076721;28;20029;-74
2022/04/12 11:29:16;;;;;;;11.18;6.47;;;19.30;83.60;;;;;;5076868;28;20381;-75
2022/04/12 11:31:47;;;;;;;12.68;5.85;;;19.40;82.90;;;;;;5078359;28;20033;-74
2022/04/12 11:34:14;;;;;;;10.48;5.57;;;19.60;79.80;;;;;;5074335;28;20037;-74
2022/04/12 11:36:50;;;;;;;9.80;5.80;;;19.80;80.40;;;;;;5064347;28;20043;-74
2022/04/12 11:39:27;;;;;;;12.70;6.20;;;20.00;80.00;;;;;;5058926;28;20067;-75
2022/04/12 11:41:58;;;;;;;11.98;5.93;;;20.20;78.40;;;;;;5067523;28;20064;-74
2022/04/12 11:44:24;;;;;;;11.13;5.68;;;20.30;76.40;;;;;;5069048;28;20025;-75
2022/04/12 11:47:04;;;;;;;11.35;5.30;;;20.40;75.30;;;;;;5058348;28;20036;-76
2022/04/12 11:49:33;;;;;;;8.10;4.88;;;20.60;73.80;;;;;;5062989;28;20071;-77
2022/04/12 11:52:01;;;;;;;11.73;5.57;;;20.70;73.10;;;;;;5062042;28;20092;-75
2022/04/12 11:54:28;;;;;;;8.75;5.20;;;20.80;71.60;;;;;;5075967;28;20146;-74
2022/04/12 11:57:07;;;;;;;9.80;5.63;;;20.90;71.10;;;;;;5076924;28;20021;-75
2022/04/12 11:59:36;;;;;;;9.48;5.82;;;21.00;69.30;;;;;;5075980;28;20486;-74
2022/04/12 12:02:05;;;;;;;10.98;5.88;;;21.00;68.10;;;;;;5076104;28;20048;-75
2022/04/12 12:04:35;;;;;;;9.05;5.30;;;21.00;67.00;;;;;;5057758;28;20155;-75
2022/04/12 12:07:07;;;;;;;9.90;5.60;;;21.10;67.10;;;;;;5068091;28;20025;-74
2022/04/12 12:09:34;;;;;;;8.32;5.70;;;21.10;65.70;;;;;;5066378;28;20051;-74
2022/04/12 12:12:09;;;;;;;11.13;5.63;;;21.20;65.40;;;;;;5060750;28;20027;-75
2022/04/12 12:14:35;;;;;;;7.50;5.30;;;21.30;65.90;;;;;;5076075;28;20033;-75
2022/04/12 12:17:05;;;;;;;10.77;5.60;;;21.40;64.80;;;;;;5074334;28;20028;-74
2022/04/12 12:19:38;;;;;;;12.02;5.60;;;21.50;64.30;;;;;;5073565;28;20053;-76
2022/04/12 12:22:07;;;;;;;10.48;5.47;;;21.60;64.10;;;;;;5057901;28;20016;-75
2022/04/12 12:24:37;;;;;;;13.57;5.28;;;21.60;63.80;;;;;;5045183;28;20029;-75
2022/04/12 12:27:05;;;;;;;10.88;5.65;;;21.70;63.00;;;;;;5068363;28;20031;-73
2022/04/12 12:29:36;;;;;;;11.98;5.57;;;21.80;62.50;;;;;;5067062;28;20016;-72
2022/04/12 12:32:02;;;;;;;10.85;5.93;;;21.90;62.30;;;;;;5063732;28;20060;-74
2022/04/12 12:34:28;;;;;;;9.73;5.22;;;22.00;61.90;;;;;;5063251;28;20473;-76
2022/04/12 12:36:54;;;;;;;10.32;5.25;;;22.00;61.30;;;;;;5074964;28;20021;-73
2022/04/12 12:39:19;;;;;;;11.38;5.18;;;22.10;61.20;;;;;;5078361;28;20535;-73
2022/04/12 12:41:45;;;;;;;11.02;5.90;;;22.20;60.90;;;;;;5077032;28;20023;-74
2022/04/12 12:44:11;;;;;;;12.85;5.93;;;22.30;60.30;;;;;;5075741;28;20506;-74